createdAt,value
2022-09-16T00:01:29.222Z,74.46
2022-09-16T00:06:53.627Z,74.19
2022-09-16T00:11:46.560Z,74.52
2022-09-16T00:16:46.563Z,74.59
2022-09-16T00:21:46.431Z,74.85
2022-09-16T00:26:46.351Z,74.85
2022-09-16T00:31:46.335Z,75.12
2022-09-16T00:36:46.200Z,75.19
2022-09-16T00:41:46.154Z,74.99
2022-09-16T00:46:46.156Z,75.05
2022-09-16T00:51:46.017Z,75.12
2022-09-16T00:56:45.948Z,74.79
2022-09-16T01:01:45.928Z,75.05
2022-09-16T01:06:45.869Z,74.52
2022-09-16T01:11:45.739Z,74.65
2022-09-16T01:16:45.688Z,74.52
2022-09-16T01:21:45.614Z,74.19
2022-09-16T01:26:45.566Z,74.39
2022-09-16T01:31:45.539Z,74.72
2022-09-16T01:36:45.427Z,74.59
2022-09-16T01:41:45.346Z,74.52
2022-09-16T01:46:45.365Z,74.59
2022-09-16T01:51:45.218Z,74.46
2022-09-16T01:56:45.145Z,74.79
2022-09-16T02:01:45.205Z,74.65
2022-09-16T02:06:45.039Z,74.92
2022-09-16T02:11:44.991Z,74.52
2022-09-16T02:16:44.890Z,74.59
2022-09-16T02:21:46.079Z,74.92
2022-09-16T02:26:44.748Z,74.92
2022-09-16T02:31:44.695Z,75.12
2022-09-16T02:36:44.618Z,75.32
2022-09-16T02:41:44.547Z,75.46
2022-09-16T02:46:44.552Z,76.00
2022-09-16T02:51:44.426Z,75.66
2022-09-16T02:56:44.341Z,76.00
2022-09-16T03:01:44.357Z,76.41
2022-09-16T03:06:44.222Z,76.97
2022-09-16T03:11:44.150Z,76.90
2022-09-16T03:16:46.146Z,76.90
2022-09-16T03:21:44.058Z,77.46
2022-09-16T03:26:44.033Z,77.46
2022-09-16T03:31:43.902Z,78.11
2022-09-16T03:36:43.833Z,78.25
2022-09-16T03:41:43.750Z,78.55
2022-09-16T03:46:43.683Z,78.91
2022-09-16T03:51:43.646Z,79.21
2022-09-16T03:56:43.553Z,79.51
2022-09-16T04:01:43.613Z,79.81
2022-09-16T04:06:43.417Z,80.11
2022-09-16T04:11:43.359Z,79.89
2022-09-16T04:16:56.710Z,80.04
2022-09-16T04:21:49.633Z,80.42
2022-09-16T04:26:49.626Z,80.26
2022-09-16T04:31:49.490Z,80.80
2022-09-16T04:36:49.430Z,80.50
2022-09-16T04:41:49.363Z,80.80
2022-09-16T04:46:49.313Z,80.65
2022-09-16T04:51:49.217Z,81.04
2022-09-16T04:56:49.230Z,81.19
2022-09-16T05:01:49.217Z,81.27
2022-09-16T05:06:49.041Z,81.50
2022-09-16T05:11:48.958Z,81.74
2022-09-16T05:16:48.898Z,81.58
2022-09-16T05:21:48.877Z,82.30
2022-09-16T05:26:48.771Z,82.62
2022-09-16T05:31:48.750Z,82.79
2022-09-16T05:36:48.637Z,82.79
2022-09-16T05:41:48.584Z,82.95
2022-09-16T05:46:48.504Z,83.11
2022-09-16T05:51:48.425Z,83.28
2022-09-16T05:56:48.373Z,83.44
2022-09-16T06:01:48.375Z,83.19
2022-09-16T06:06:48.268Z,82.95
2022-09-16T06:11:48.199Z,82.46
2022-09-16T06:16:48.121Z,82.38
2022-09-16T06:21:48.081Z,82.06
2022-09-16T06:26:47.972Z,81.50
2022-09-16T06:31:47.898Z,80.65
2022-09-16T06:36:47.854Z,80.11
2022-09-16T06:41:47.898Z,79.73
2022-09-16T06:46:47.749Z,78.55
2022-09-16T06:51:47.670Z,77.97
2022-09-16T06:56:47.682Z,77.82
2022-09-16T07:01:47.534Z,77.11
2022-09-16T07:11:48.433Z,77.46
2022-09-16T07:16:47.364Z,77.61
2022-09-16T07:21:47.279Z,76.55
2022-09-16T07:26:47.178Z,73.81
2022-09-16T07:31:47.127Z,69.26
2022-09-16T07:36:47.045Z,65.09
2022-09-16T07:41:46.981Z,64.20
2022-09-16T07:46:46.949Z,63.29
2022-09-16T07:51:46.853Z,62.77
2022-09-16T07:56:46.768Z,61.67
2022-09-16T08:01:46.817Z,60.30
2022-09-16T08:06:46.673Z,59.58
2022-09-16T08:11:46.612Z,59.92
2022-09-16T08:16:46.633Z,60.52
2022-09-16T08:21:46.443Z,60.87
2022-09-16T08:26:46.488Z,60.35
2022-09-16T08:31:46.350Z,58.83
2022-09-16T08:36:46.327Z,58.67
2022-09-16T08:41:46.199Z,59.16
2022-09-16T08:46:46.137Z,60.09
2022-09-16T08:51:46.063Z,61.22
2022-09-16T08:56:45.997Z,61.53
2022-09-16T09:01:46.290Z,61.04
2022-09-16T09:06:45.837Z,59.33
2022-09-16T09:11:46.000Z,56.02
2022-09-16T09:16:45.788Z,52.63
2022-09-16T09:21:45.630Z,51.22
2022-09-16T09:26:45.631Z,51.38
2022-09-16T09:31:45.600Z,50.94
2022-09-16T09:36:45.481Z,50.01
2022-09-16T09:41:45.429Z,50.46
2022-09-16T09:46:45.502Z,51.47
2022-09-16T09:51:45.254Z,52.04
2022-09-16T09:56:45.166Z,53.09
2022-09-16T10:01:45.172Z,54.18
2022-09-16T10:06:45.132Z,55.07
2022-09-16T10:11:44.995Z,55.80
2022-09-16T10:16:45.001Z,56.51
2022-09-16T10:21:44.852Z,56.96
2022-09-16T10:26:44.820Z,55.36
2022-09-16T10:31:44.740Z,53.43
2022-09-16T10:36:44.662Z,51.01
2022-09-16T10:41:44.573Z,50.58
2022-09-16T10:46:44.514Z,51.07
2022-09-16T10:51:44.468Z,51.95
2022-09-16T10:56:44.372Z,50.79
2022-09-16T11:01:46.473Z,48.54
2022-09-16T11:06:44.324Z,47.18
2022-09-16T11:11:44.177Z,47.08
2022-09-16T11:16:44.257Z,47.03
2022-09-16T11:21:44.076Z,44.03
2022-09-16T11:26:44.188Z,42.19
2022-09-16T11:31:44.028Z,42.70
2022-09-16T11:36:43.939Z,43.40
2022-09-16T11:41:43.806Z,44.59
2022-09-16T11:46:43.780Z,46.35
2022-09-16T11:51:43.675Z,45.90
2022-09-16T11:56:43.614Z,44.64
2022-09-16T12:01:43.597Z,43.85
2022-09-16T12:06:43.465Z,44.45
2022-09-16T12:11:43.405Z,45.02
2022-09-16T12:16:43.326Z,46.92
2022-09-16T12:21:43.485Z,48.77
2022-09-16T12:26:43.416Z,50.79
2022-09-16T12:31:43.336Z,52.08
2022-09-16T12:36:43.070Z,53.56
2022-09-16T12:41:42.995Z,53.60
2022-09-16T12:46:43.044Z,53.53
2022-09-16T12:51:45.849Z,52.56
2022-09-16T12:56:43.842Z,51.85
2022-09-16T13:01:42.776Z,52.08
2022-09-16T13:06:42.740Z,53.33
2022-09-16T13:16:43.572Z,54.18
2022-09-16T13:21:42.594Z,54.39
2022-09-16T13:26:42.458Z,55.21
2022-09-16T13:31:42.401Z,55.76
2022-09-16T13:36:42.265Z,57.62
2022-09-16T13:41:42.243Z,59.49
2022-09-16T13:46:42.269Z,62.17
2022-09-16T13:51:42.084Z,65.19
2022-09-16T13:56:42.002Z,67.22
2022-09-16T14:01:58.936Z,69.38
2022-09-16T14:06:43.025Z,70.77
2022-09-16T14:11:41.836Z,72.10
2022-09-16T14:16:42.889Z,73.87
2022-09-16T14:21:41.660Z,75.05
2022-09-16T14:26:41.612Z,75.46
2022-09-16T14:31:41.575Z,75.66
2022-09-16T14:36:41.479Z,77.04
2022-09-16T14:41:41.479Z,77.32
2022-09-16T14:46:41.396Z,76.07
2022-09-16T14:51:41.314Z,75.86
2022-09-16T14:56:41.228Z,74.79
2022-09-16T15:01:41.194Z,75.52
2022-09-16T15:06:41.102Z,77.18
2022-09-16T15:11:48.086Z,77.75
2022-09-16T15:16:41.982Z,78.33
2022-09-16T15:21:40.957Z,78.62
2022-09-16T15:26:40.848Z,78.99
2022-09-16T15:31:40.802Z,79.06
2022-09-16T15:36:40.718Z,78.99
2022-09-16T15:41:40.629Z,79.21
2022-09-16T15:46:40.605Z,79.81
2022-09-16T15:51:40.491Z,79.51
2022-09-16T15:56:44.452Z,79.43
2022-09-16T16:01:40.399Z,79.81
2022-09-16T16:06:40.298Z,80.26
2022-09-16T16:11:40.217Z,79.43
2022-09-16T16:17:01.555Z,80.04
2022-09-16T16:21:41.091Z,80.57
2022-09-16T16:26:40.091Z,79.58
2022-09-16T16:31:40.065Z,79.51
2022-09-16T16:36:39.905Z,79.14
2022-09-16T16:41:39.808Z,79.66
2022-09-16T16:46:39.914Z,80.80
2022-09-16T16:51:39.709Z,81.82
2022-09-16T16:56:39.705Z,81.82
2022-09-16T17:01:39.634Z,83.19
2022-09-16T17:06:39.543Z,82.95
2022-09-16T17:11:39.503Z,84.19
2022-09-16T17:16:39.374Z,84.87
2022-09-16T17:21:39.283Z,85.38
2022-09-16T17:26:39.288Z,85.56
2022-09-16T17:31:39.142Z,85.90
2022-09-16T17:36:39.086Z,86.17
2022-09-16T17:41:39.025Z,86.25
2022-09-16T17:46:39.081Z,87.06
2022-09-16T17:51:38.899Z,87.24
2022-09-16T17:56:38.836Z,88.33
2022-09-16T18:01:38.744Z,88.89
2022-09-16T18:06:38.685Z,89.93
2022-09-16T18:11:38.627Z,90.80
2022-09-16T18:16:38.597Z,90.61
2022-09-16T18:21:38.589Z,91.39
2022-09-16T18:26:38.483Z,91.29
2022-09-16T18:31:38.367Z,91.39
2022-09-16T18:36:38.293Z,91.89
2022-09-16T18:41:38.259Z,92.70
2022-09-16T18:46:38.214Z,92.90
2022-09-16T18:51:38.097Z,93.83
2022-09-16T18:56:38.106Z,93.31
2022-09-16T19:01:38.142Z,94.68
2022-09-16T19:06:37.913Z,94.57
2022-09-16T19:11:37.833Z,94.15
2022-09-16T19:16:37.770Z,94.68
2022-09-16T19:21:37.704Z,93.91
2022-09-16T19:26:37.619Z,94.33
2022-09-16T19:31:37.564Z,94.80
2022-09-16T19:36:37.514Z,95.07
2022-09-16T19:41:37.446Z,95.18
2022-09-16T19:46:37.402Z,95.72
2022-09-16T19:51:37.277Z,95.83
2022-09-16T19:56:37.344Z,96.26
2022-09-16T20:01:37.204Z,96.15
2022-09-16T20:06:37.118Z,96.21
2022-09-16T20:11:37.068Z,97.04
2022-09-16T20:16:37.025Z,98.57
2022-09-16T20:21:36.967Z,98.92
2022-09-16T20:26:36.891Z,98.28
2022-09-16T20:31:36.856Z,98.28
2022-09-16T20:36:36.704Z,97.94
2022-09-16T20:41:36.645Z,98.34
2022-09-16T20:46:36.590Z,98.57
2022-09-16T20:51:36.485Z,99.03
2022-09-16T20:56:38.868Z,99.44
2022-09-16T21:01:36.373Z,100.39
2022-09-16T21:06:36.356Z,99.21
2022-09-16T21:11:36.349Z,99.97
2022-09-16T21:16:36.273Z,98.97
2022-09-16T21:21:36.084Z,98.86
2022-09-16T21:26:36.035Z,98.63
2022-09-16T21:31:36.020Z,99.68
2022-09-16T21:36:35.893Z,99.26
2022-09-16T21:41:35.956Z,99.26
2022-09-16T21:46:35.846Z,98.51
2022-09-16T21:51:35.708Z,99.15
2022-09-16T21:56:35.638Z,98.63
2022-09-16T22:01:35.626Z,98.57
2022-09-16T22:06:35.653Z,98.00
2022-09-16T22:11:35.643Z,98.86
2022-09-16T22:16:35.389Z,98.92
2022-09-16T22:21:35.354Z,99.03
2022-09-16T22:26:35.303Z,98.74
2022-09-16T22:31:35.298Z,99.44
2022-09-16T22:36:35.124Z,99.38
2022-09-16T22:41:35.063Z,99.03
2022-09-16T22:46:35.038Z,99.32
2022-09-16T22:51:34.919Z,99.79
2022-09-16T22:56:34.846Z,98.86
2022-09-16T23:01:34.825Z,98.40
2022-09-16T23:06:34.740Z,98.11
2022-09-16T23:11:34.672Z,97.94
2022-09-16T23:16:34.630Z,99.32
2022-09-16T23:21:34.520Z,98.80
2022-09-16T23:26:34.445Z,98.17
2022-09-16T23:31:34.550Z,98.40
2022-09-16T23:36:34.322Z,98.92
2022-09-16T23:41:34.258Z,98.05
2022-09-16T23:46:34.250Z,97.66
2022-09-16T23:51:34.142Z,97.94
2022-09-16T23:56:34.036Z,97.83
